sensor_id;sensor_type;location;lat;lon;timestamp;P1;durP1;ratioP1;P2;durP2;ratioP2
23119;SDS011;11729;50.836;4.330;2022-07-19T00:01:11;7.75;;;7.05;;
23119;SDS011;11729;50.836;4.330;2022-07-19T00:03:36;8.75;;;7.63;;
23119;SDS011;11729;50.836;4.330;2022-07-19T00:06:02;8.95;;;7.35;;
23119;SDS011;11729;50.836;4.330;2022-07-19T00:08:27;12.40;;;8.18;;
23119;SDS011;11729;50.836;4.330;2022-07-19T00:10:53;12.05;;;7.90;;
23119;SDS011;11729;50.836;4.330;2022-07-19T00:13:19;12.35;;;7.68;;
23119;SDS011;11729;50.836;4.330;2022-07-19T00:15:44;11.30;;;7.53;;
23119;SDS011;11729;50.836;4.330;2022-07-19T00:18:10;12.27;;;7.63;;
23119;SDS011;11729;50.836;4.330;2022-07-19T00:20:35;11.30;;;8.10;;
23119;SDS011;11729;50.836;4.330;2022-07-19T00:23:01;13.15;;;8.40;;
23119;SDS011;11729;50.836;4.330;2022-07-19T00:25:27;11.65;;;7.78;;
23119;SDS011;11729;50.836;4.330;2022-07-19T00:27:52;13.95;;;8.00;;
23119;SDS011;11729;50.836;4.330;2022-07-19T00:30:18;11.68;;;8.15;;
23119;SDS011;11729;50.836;4.330;2022-07-19T00:32:44;15.57;;;9.07;;
23119;SDS011;11729;50.836;4.330;2022-07-19T00:35:09;11.93;;;8.23;;
23119;SDS011;11729;50.836;4.330;2022-07-19T00:37:35;12.45;;;8.02;;
23119;SDS011;11729;50.836;4.330;2022-07-19T00:40:01;13.00;;;8.23;;
23119;SDS011;11729;50.836;4.330;2022-07-19T00:42:27;12.48;;;8.30;;
23119;SDS011;11729;50.836;4.330;2022-07-19T00:44:53;13.63;;;7.90;;
23119;SDS011;11729;50.836;4.330;2022-07-19T00:47:19;17.17;;;7.55;;
23119;SDS011;11729;50.836;4.330;2022-07-19T00:49:45;9.15;;;7.80;;
23119;SDS011;11729;50.836;4.330;2022-07-19T00:52:11;13.55;;;7.43;;
23119;SDS011;11729;50.836;4.330;2022-07-19T00:54:40;12.85;;;7.93;;
23119;SDS011;11729;50.836;4.330;2022-07-19T00:57:07;9.57;;;7.80;;
23119;SDS011;11729;50.836;4.330;2022-07-19T00:59:34;10.38;;;7.88;;
23119;SDS011;11729;50.836;4.330;2022-07-19T01:02:00;10.90;;;7.50;;
23119;SDS011;11729;50.836;4.330;2022-07-19T01:04:27;16.05;;;7.80;;
23119;SDS011;11729;50.836;4.330;2022-07-19T01:06:53;17.30;;;8.75;;
23119;SDS011;11729;50.836;4.330;2022-07-19T01:09:19;15.07;;;8.40;;
23119;SDS011;11729;50.836;4.330;2022-07-19T01:11:44;13.30;;;8.43;;
23119;SDS011;11729;50.836;4.330;2022-07-19T01:14:10;14.05;;;8.30;;
23119;SDS011;11729;50.836;4.330;2022-07-19T01:16:36;10.73;;;8.30;;
23119;SDS011;11729;50.836;4.330;2022-07-19T01:19:07;11.13;;;8.65;;
23119;SDS011;11729;50.836;4.330;2022-07-19T01:21:35;8.93;;;8.00;;
23119;SDS011;11729;50.836;4.330;2022-07-19T01:24:00;12.25;;;8.45;;
23119;SDS011;11729;50.836;4.330;2022-07-19T01:26:26;13.98;;;8.88;;
23119;SDS011;11729;50.836;4.330;2022-07-19T01:28:52;10.30;;;8.80;;
23119;SDS011;11729;50.836;4.330;2022-07-19T01:31:17;9.20;;;8.23;;
23119;SDS011;11729;50.836;4.330;2022-07-19T01:33:44;13.02;;;9.10;;
23119;SDS011;11729;50.836;4.330;2022-07-19T01:36:10;14.23;;;8.57;;
23119;SDS011;11729;50.836;4.330;2022-07-19T01:38:36;11.98;;;8.73;;
23119;SDS011;11729;50.836;4.330;2022-07-19T01:41:03;12.07;;;9.10;;
23119;SDS011;11729;50.836;4.330;2022-07-19T01:43:30;11.85;;;9.35;;
23119;SDS011;11729;50.836;4.330;2022-07-19T01:45:56;13.30;;;8.93;;
23119;SDS011;11729;50.836;4.330;2022-07-19T01:48:21;14.88;;;9.10;;
23119;SDS011;11729;50.836;4.330;2022-07-19T01:50:48;14.07;;;9.07;;
23119;SDS011;11729;50.836;4.330;2022-07-19T01:53:13;12.27;;;8.23;;
23119;SDS011;11729;50.836;4.330;2022-07-19T01:55:39;12.05;;;8.73;;
23119;SDS011;11729;50.836;4.330;2022-07-19T01:58:05;13.50;;;8.77;;
23119;SDS011;11729;50.836;4.330;2022-07-19T02:00:31;11.63;;;8.88;;
23119;SDS011;11729;50.836;4.330;2022-07-19T02:02:57;10.93;;;8.38;;
23119;SDS011;11729;50.836;4.330;2022-07-19T02:05:22;15.20;;;8.52;;
23119;SDS011;11729;50.836;4.330;2022-07-19T02:07:48;13.15;;;8.20;;
23119;SDS011;11729;50.836;4.330;2022-07-19T02:10:14;10.48;;;8.52;;
23119;SDS011;11729;50.836;4.330;2022-07-19T02:12:40;13.90;;;8.23;;
23119;SDS011;11729;50.836;4.330;2022-07-19T02:15:06;12.88;;;8.30;;
23119;SDS011;11729;50.836;4.330;2022-07-19T02:17:32;13.23;;;8.45;;
23119;SDS011;11729;50.836;4.330;2022-07-19T02:19:58;8.80;;;7.60;;
23119;SDS011;11729;50.836;4.330;2022-07-19T02:22:24;10.27;;;7.55;;
23119;SDS011;11729;50.836;4.330;2022-07-19T02:24:49;13.07;;;7.78;;
23119;SDS011;11729;50.836;4.330;2022-07-19T02:27:15;14.73;;;8.10;;
23119;SDS011;11729;50.836;4.330;2022-07-19T02:29:40;11.60;;;8.02;;
23119;SDS011;11729;50.836;4.330;2022-07-19T02:32:06;11.00;;;8.25;;
23119;SDS011;11729;50.836;4.330;2022-07-19T02:34:32;10.13;;;7.95;;
23119;SDS011;11729;50.836;4.330;2022-07-19T02:36:58;9.80;;;7.90;;
23119;SDS011;11729;50.836;4.330;2022-07-19T02:39:25;9.30;;;8.18;;
23119;SDS011;11729;50.836;4.330;2022-07-19T02:41:50;9.60;;;8.07;;
23119;SDS011;11729;50.836;4.330;2022-07-19T02:44:16;9.38;;;7.72;;
23119;SDS011;11729;50.836;4.330;2022-07-19T02:46:42;12.95;;;8.20;;
23119;SDS011;11729;50.836;4.330;2022-07-19T02:49:07;9.95;;;7.80;;
23119;SDS011;11729;50.836;4.330;2022-07-19T02:51:33;10.73;;;7.95;;
23119;SDS011;11729;50.836;4.330;2022-07-19T02:53:59;9.35;;;7.68;;
23119;SDS011;11729;50.836;4.330;2022-07-19T02:56:24;10.40;;;8.20;;
23119;SDS011;11729;50.836;4.330;2022-07-19T02:58:50;7.93;;;7.10;;
23119;SDS011;11729;50.836;4.330;2022-07-19T03:01:15;10.68;;;7.80;;
23119;SDS011;11729;50.836;4.330;2022-07-19T03:03:41;8.77;;;7.68;;
23119;SDS011;11729;50.836;4.330;2022-07-19T03:06:11;16.95;;;7.82;;
23119;SDS011;11729;50.836;4.330;2022-07-19T03:08:38;10.57;;;7.43;;
23119;SDS011;11729;50.836;4.330;2022-07-19T03:11:03;18.88;;;7.47;;
23119;SDS011;11729;50.836;4.330;2022-07-19T03:13:29;13.32;;;7.60;;
23119;SDS011;11729;50.836;4.330;2022-07-19T03:15:55;12.80;;;7.70;;
23119;SDS011;11729;50.836;4.330;2022-07-19T03:18:20;13.15;;;7.63;;
23119;SDS011;11729;50.836;4.330;2022-07-19T03:20:46;13.35;;;7.32;;
23119;SDS011;11729;50.836;4.330;2022-07-19T03:23:12;10.18;;;7.25;;
23119;SDS011;11729;50.836;4.330;2022-07-19T03:25:37;14.60;;;6.82;;
23119;SDS011;11729;50.836;4.330;2022-07-19T03:28:03;15.85;;;7.65;;
23119;SDS011;11729;50.836;4.330;2022-07-19T03:30:29;15.18;;;8.10;;
23119;SDS011;11729;50.836;4.330;2022-07-19T03:32:56;13.33;;;7.90;;
23119;SDS011;11729;50.836;4.330;2022-07-19T03:35:23;13.45;;;7.40;;
23119;SDS011;11729;50.836;4.330;2022-07-19T03:37:49;16.88;;;7.35;;
23119;SDS011;11729;50.836;4.330;2022-07-19T03:40:15;9.02;;;6.70;;
23119;SDS011;11729;50.836;4.330;2022-07-19T03:42:40;12.85;;;7.22;;
23119;SDS011;11729;50.836;4.330;2022-07-19T03:45:06;21.73;;;7.78;;
23119;SDS011;11729;50.836;4.330;2022-07-19T03:47:33;13.63;;;7.13;;
23119;SDS011;11729;50.836;4.330;2022-07-19T03:49:58;18.92;;;7.55;;
23119;SDS011;11729;50.836;4.330;2022-07-19T03:52:24;16.98;;;7.25;;
23119;SDS011;11729;50.836;4.330;2022-07-19T03:54:50;16.08;;;7.15;;
23119;SDS011;11729;50.836;4.330;2022-07-19T03:57:15;15.88;;;7.07;;
23119;SDS011;11729;50.836;4.330;2022-07-19T03:59:41;13.25;;;7.30;;
23119;SDS011;11729;50.836;4.330;2022-07-19T04:02:07;20.50;;;7.38;;
23119;SDS011;11729;50.836;4.330;2022-07-19T04:04:34;14.35;;;7.22;;
23119;SDS011;11729;50.836;4.330;2022-07-19T04:06:59;19.63;;;7.20;;
23119;SDS011;11729;50.836;4.330;2022-07-19T04:09:25;14.95;;;7.15;;
23119;SDS011;11729;50.836;4.330;2022-07-19T04:11:51;18.23;;;7.25;;
23119;SDS011;11729;50.836;4.330;2022-07-19T04:14:16;19.23;;;7.35;;
23119;SDS011;11729;50.836;4.330;2022-07-19T04:16:42;21.30;;;7.38;;
23119;SDS011;11729;50.836;4.330;2022-07-19T04:19:07;18.23;;;7.32;;
23119;SDS011;11729;50.836;4.330;2022-07-19T04:21:33;13.07;;;7.65;;
23119;SDS011;11729;50.836;4.330;2022-07-19T04:23:59;18.38;;;7.57;;
23119;SDS011;11729;50.836;4.330;2022-07-19T04:26:24;21.42;;;7.35;;
23119;SDS011;11729;50.836;4.330;2022-07-19T04:28:50;16.25;;;6.95;;
23119;SDS011;11729;50.836;4.330;2022-07-19T04:31:16;17.85;;;7.28;;
23119;SDS011;11729;50.836;4.330;2022-07-19T04:33:42;16.92;;;7.35;;
23119;SDS011;11729;50.836;4.330;2022-07-19T04:36:08;12.45;;;7.38;;
23119;SDS011;11729;50.836;4.330;2022-07-19T04:38:33;15.73;;;6.95;;
23119;SDS011;11729;50.836;4.330;2022-07-19T04:40:59;11.98;;;7.18;;
23119;SDS011;11729;50.836;4.330;2022-07-19T04:43:25;13.00;;;8.02;;
23119;SDS011;11729;50.836;4.330;2022-07-19T04:45:50;20.27;;;7.28;;
23119;SDS011;11729;50.836;4.330;2022-07-19T04:48:16;15.73;;;7.07;;
23119;SDS011;11729;50.836;4.330;2022-07-19T04:50:42;10.93;;;6.72;;
23119;SDS011;11729;50.836;4.330;2022-07-19T04:53:07;15.70;;;6.78;;
23119;SDS011;11729;50.836;4.330;2022-07-19T04:55:34;13.90;;;7.10;;
23119;SDS011;11729;50.836;4.330;2022-07-19T05:00:27;11.75;;;6.80;;
23119;SDS011;11729;50.836;4.330;2022-07-19T05:02:53;12.18;;;7.22;;
23119;SDS011;11729;50.836;4.330;2022-07-19T05:05:19;14.77;;;7.03;;
23119;SDS011;11729;50.836;4.330;2022-07-19T05:07:45;19.27;;;7.60;;
23119;SDS011;11729;50.836;4.330;2022-07-19T05:10:11;14.43;;;7.32;;
23119;SDS011;11729;50.836;4.330;2022-07-19T05:12:37;15.75;;;7.40;;
23119;SDS011;11729;50.836;4.330;2022-07-19T05:15:04;10.63;;;6.93;;
23119;SDS011;11729;50.836;4.330;2022-07-19T05:17:31;19.73;;;7.53;;
23119;SDS011;11729;50.836;4.330;2022-07-19T05:19:56;12.68;;;7.75;;
23119;SDS011;11729;50.836;4.330;2022-07-19T05:22:22;17.55;;;7.22;;
23119;SDS011;11729;50.836;4.330;2022-07-19T05:24:49;21.35;;;7.68;;
23119;SDS011;11729;50.836;4.330;2022-07-19T05:27:15;17.63;;;7.28;;
23119;SDS011;11729;50.836;4.330;2022-07-19T05:29:40;18.15;;;7.82;;
23119;SDS011;11729;50.836;4.330;2022-07-19T05:32:06;13.32;;;6.80;;
23119;SDS011;11729;50.836;4.330;2022-07-19T05:34:32;10.35;;;6.80;;
23119;SDS011;11729;50.836;4.330;2022-07-19T05:36:57;9.90;;;7.00;;
23119;SDS011;11729;50.836;4.330;2022-07-19T05:39:23;13.20;;;6.57;;
23119;SDS011;11729;50.836;4.330;2022-07-19T05:41:49;17.05;;;6.72;;
23119;SDS011;11729;50.836;4.330;2022-07-19T05:44:14;12.30;;;6.43;;
23119;SDS011;11729;50.836;4.330;2022-07-19T05:46:40;20.63;;;6.65;;
23119;SDS011;11729;50.836;4.330;2022-07-19T05:49:08;10.80;;;6.72;;
23119;SDS011;11729;50.836;4.330;2022-07-19T05:51:35;16.48;;;6.72;;
23119;SDS011;11729;50.836;4.330;2022-07-19T05:54:01;14.30;;;6.68;;
23119;SDS011;11729;50.836;4.330;2022-07-19T05:56:27;16.67;;;6.53;;
23119;SDS011;11729;50.836;4.330;2022-07-19T05:58:53;15.35;;;7.10;;
23119;SDS011;11729;50.836;4.330;2022-07-19T06:01:19;20.52;;;6.55;;
23119;SDS011;11729;50.836;4.330;2022-07-19T06:03:57;16.55;;;6.80;;
23119;SDS011;11729;50.836;4.330;2022-07-19T06:06:25;10.27;;;6.70;;
23119;SDS011;11729;50.836;4.330;2022-07-19T06:08:55;9.85;;;5.78;;
23119;SDS011;11729;50.836;4.330;2022-07-19T06:11:21;7.07;;;5.57;;
23119;SDS011;11729;50.836;4.330;2022-07-19T06:13:50;15.20;;;5.70;;
23119;SDS011;11729;50.836;4.330;2022-07-19T06:16:17;10.23;;;5.95;;
23119;SDS011;11729;50.836;4.330;2022-07-19T06:18:43;12.50;;;5.95;;
23119;SDS011;11729;50.836;4.330;2022-07-19T06:21:10;14.73;;;5.93;;
23119;SDS011;11729;50.836;4.330;2022-07-19T06:23:38;18.33;;;6.57;;
23119;SDS011;11729;50.836;4.330;2022-07-19T06:26:05;15.27;;;6.28;;
23119;SDS011;11729;50.836;4.330;2022-07-19T06:28:31;14.90;;;6.20;;
23119;SDS011;11729;50.836;4.330;2022-07-19T06:30:57;15.60;;;5.87;;
23119;SDS011;11729;50.836;4.330;2022-07-19T06:33:23;12.33;;;5.70;;
23119;SDS011;11729;50.836;4.330;2022-07-19T06:35:49;13.33;;;5.63;;
23119;SDS011;11729;50.836;4.330;2022-07-19T06:38:14;16.83;;;5.50;;
23119;SDS011;11729;50.836;4.330;2022-07-19T06:40:40;15.88;;;5.35;;
23119;SDS011;11729;50.836;4.330;2022-07-19T06:43:06;14.63;;;5.50;;
23119;SDS011;11729;50.836;4.330;2022-07-19T06:45:32;13.60;;;5.23;;
23119;SDS011;11729;50.836;4.330;2022-07-19T06:47:57;14.27;;;5.40;;
23119;SDS011;11729;50.836;4.330;2022-07-19T06:50:23;7.00;;;5.00;;
23119;SDS011;11729;50.836;4.330;2022-07-19T06:52:49;18.67;;;5.47;;
23119;SDS011;11729;50.836;4.330;2022-07-19T06:55:15;8.37;;;5.20;;
23119;SDS011;11729;50.836;4.330;2022-07-19T06:57:40;11.07;;;5.07;;
23119;SDS011;11729;50.836;4.330;2022-07-19T07:00:07;12.10;;;5.30;;
23119;SDS011;11729;50.836;4.330;2022-07-19T07:02:35;12.05;;;5.47;;
23119;SDS011;11729;50.836;4.330;2022-07-19T07:05:01;14.05;;;5.35;;
23119;SDS011;11729;50.836;4.330;2022-07-19T07:07:27;16.58;;;5.72;;
23119;SDS011;11729;50.836;4.330;2022-07-19T07:09:52;13.20;;;5.53;;
23119;SDS011;11729;50.836;4.330;2022-07-19T07:12:18;14.40;;;5.13;;
23119;SDS011;11729;50.836;4.330;2022-07-19T07:14:44;9.30;;;5.20;;
23119;SDS011;11729;50.836;4.330;2022-07-19T07:17:09;9.27;;;4.93;;
23119;SDS011;11729;50.836;4.330;2022-07-19T07:19:35;11.90;;;5.20;;
23119;SDS011;11729;50.836;4.330;2022-07-19T07:22:01;11.48;;;5.18;;
23119;SDS011;11729;50.836;4.330;2022-07-19T07:24:27;9.43;;;4.75;;
23119;SDS011;11729;50.836;4.330;2022-07-19T07:26:53;6.40;;;4.50;;
23119;SDS011;11729;50.836;4.330;2022-07-19T07:29:19;15.65;;;4.93;;
23119;SDS011;11729;50.836;4.330;2022-07-19T07:31:45;7.70;;;5.05;;
23119;SDS011;11729;50.836;4.330;2022-07-19T07:34:22;9.55;;;4.75;;
23119;SDS011;11729;50.836;4.330;2022-07-19T07:36:49;11.15;;;4.80;;
23119;SDS011;11729;50.836;4.330;2022-07-19T07:39:14;6.43;;;4.80;;
23119;SDS011;11729;50.836;4.330;2022-07-19T07:41:40;9.02;;;5.50;;
23119;SDS011;11729;50.836;4.330;2022-07-19T07:44:06;11.73;;;5.03;;
23119;SDS011;11729;50.836;4.330;2022-07-19T07:46:32;5.30;;;4.65;;
23119;SDS011;11729;50.836;4.330;2022-07-19T07:48:58;11.63;;;5.17;;
23119;SDS011;11729;50.836;4.330;2022-07-19T07:51:24;9.85;;;5.05;;
23119;SDS011;11729;50.836;4.330;2022-07-19T07:58:41;10.37;;;4.97;;
23119;SDS011;11729;50.836;4.330;2022-07-19T08:01:07;8.00;;;5.03;;
23119;SDS011;11729;50.836;4.330;2022-07-19T08:03:32;11.97;;;5.27;;
23119;SDS011;11729;50.836;4.330;2022-07-19T08:05:58;7.53;;;5.40;;
23119;SDS011;11729;50.836;4.330;2022-07-19T08:08:24;9.27;;;5.10;;
23119;SDS011;11729;50.836;4.330;2022-07-19T08:10:54;11.10;;;5.20;;
23119;SDS011;11729;50.836;4.330;2022-07-19T08:13:22;10.40;;;5.07;;
23119;SDS011;11729;50.836;4.330;2022-07-19T08:15:48;12.07;;;5.20;;
23119;SDS011;11729;50.836;4.330;2022-07-19T08:18:14;8.80;;;5.30;;
23119;SDS011;11729;50.836;4.330;2022-07-19T08:20:40;10.43;;;5.50;;
23119;SDS011;11729;50.836;4.330;2022-07-19T08:23:05;9.63;;;5.47;;
23119;SDS011;11729;50.836;4.330;2022-07-19T08:25:31;5.57;;;5.05;;
23119;SDS011;11729;50.836;4.330;2022-07-19T08:28:00;10.88;;;5.20;;
23119;SDS011;11729;50.836;4.330;2022-07-19T08:30:27;11.68;;;5.10;;
23119;SDS011;11729;50.836;4.330;2022-07-19T08:32:53;7.10;;;6.17;;
23119;SDS011;11729;50.836;4.330;2022-07-19T08:35:18;12.77;;;5.33;;
23119;SDS011;11729;50.836;4.330;2022-07-19T08:37:44;10.43;;;5.32;;
23119;SDS011;11729;50.836;4.330;2022-07-19T08:40:10;14.47;;;5.07;;
23119;SDS011;11729;50.836;4.330;2022-07-19T08:42:36;14.50;;;5.67;;
23119;SDS011;11729;50.836;4.330;2022-07-19T08:45:02;7.90;;;5.30;;
23119;SDS011;11729;50.836;4.330;2022-07-19T08:47:30;6.45;;;4.95;;
23119;SDS011;11729;50.836;4.330;2022-07-19T08:49:59;14.10;;;6.28;;
23119;SDS011;11729;50.836;4.330;2022-07-19T08:54:51;14.30;;;6.30;;
23119;SDS011;11729;50.836;4.330;2022-07-19T08:57:17;10.18;;;5.20;;
23119;SDS011;11729;50.836;4.330;2022-07-19T09:00:02;11.32;;;5.63;;
23119;SDS011;11729;50.836;4.330;2022-07-19T09:02:29;9.23;;;5.40;;
23119;SDS011;11729;50.836;4.330;2022-07-19T09:07:28;11.50;;;5.13;;
23119;SDS011;11729;50.836;4.330;2022-07-19T09:10:13;14.17;;;5.20;;
23119;SDS011;11729;50.836;4.330;2022-07-19T09:12:59;9.82;;;5.82;;
23119;SDS011;11729;50.836;4.330;2022-07-19T09:20:45;10.60;;;5.72;;
23119;SDS011;11729;50.836;4.330;2022-07-19T09:23:13;7.35;;;5.35;;
23119;SDS011;11729;50.836;4.330;2022-07-19T09:25:41;13.60;;;5.63;;
23119;SDS011;11729;50.836;4.330;2022-07-19T09:28:28;17.85;;;5.80;;
23119;SDS011;11729;50.836;4.330;2022-07-19T09:30:57;9.98;;;5.35;;
23119;SDS011;11729;50.836;4.330;2022-07-19T09:33:25;6.00;;;5.05;;
23119;SDS011;11729;50.836;4.330;2022-07-19T09:36:00;8.77;;;5.20;;
23119;SDS011;11729;50.836;4.330;2022-07-19T09:38:31;6.75;;;4.97;;
23119;SDS011;11729;50.836;4.330;2022-07-19T09:46:30;11.73;;;5.65;;
23119;SDS011;11729;50.836;4.330;2022-07-19T09:51:46;15.27;;;5.40;;
23119;SDS011;11729;50.836;4.330;2022-07-19T09:54:15;9.05;;;5.55;;
23119;SDS011;11729;50.836;4.330;2022-07-19T09:56:42;9.45;;;5.22;;
23119;SDS011;11729;50.836;4.330;2022-07-19T09:59:09;13.68;;;6.15;;
23119;SDS011;11729;50.836;4.330;2022-07-19T10:01:36;13.52;;;5.78;;
23119;SDS011;11729;50.836;4.330;2022-07-19T10:04:07;8.13;;;5.63;;
23119;SDS011;11729;50.836;4.330;2022-07-19T10:06:37;10.65;;;5.55;;
23119;SDS011;11729;50.836;4.330;2022-07-19T10:09:05;8.55;;;5.60;;
23119;SDS011;11729;50.836;4.330;2022-07-19T10:11:33;10.23;;;5.85;;
23119;SDS011;11729;50.836;4.330;2022-07-19T10:14:02;6.87;;;5.50;;
23119;SDS011;11729;50.836;4.330;2022-07-19T10:19:19;12.02;;;5.35;;
23119;SDS011;11729;50.836;4.330;2022-07-19T10:21:50;12.60;;;5.22;;
23119;SDS011;11729;50.836;4.330;2022-07-19T10:29:49;7.25;;;5.20;;
23119;SDS011;11729;50.836;4.330;2022-07-19T10:32:27;10.60;;;5.57;;
23119;SDS011;11729;50.836;4.330;2022-07-19T10:43:15;6.68;;;4.93;;
23119;SDS011;11729;50.836;4.330;2022-07-19T10:48:48;6.68;;;5.22;;
23119;SDS011;11729;50.836;4.330;2022-07-19T10:51:30;13.38;;;5.60;;
23119;SDS011;11729;50.836;4.330;2022-07-19T10:56:32;14.48;;;5.70;;
23119;SDS011;11729;50.836;4.330;2022-07-19T10:59:05;9.10;;;5.22;;
23119;SDS011;11729;50.836;4.330;2022-07-19T11:01:33;7.45;;;5.32;;
23119;SDS011;11729;50.836;4.330;2022-07-19T11:07:14;10.00;;;5.50;;
23119;SDS011;11729;50.836;4.330;2022-07-19T11:09:44;7.80;;;5.47;;
23119;SDS011;11729;50.836;4.330;2022-07-19T11:12:46;8.75;;;5.00;;
23119;SDS011;11729;50.836;4.330;2022-07-19T11:15:07;15.05;;;5.28;;
23119;SDS011;11729;50.836;4.330;2022-07-19T11:17:34;6.82;;;5.20;;
23119;SDS011;11729;50.836;4.330;2022-07-19T11:20:21;8.75;;;5.50;;
23119;SDS011;11729;50.836;4.330;2022-07-19T11:22:48;11.00;;;5.15;;
23119;SDS011;11729;50.836;4.330;2022-07-19T11:25:22;10.97;;;5.03;;
23119;SDS011;11729;50.836;4.330;2022-07-19T11:27:55;9.63;;;5.15;;
23119;SDS011;11729;50.836;4.330;2022-07-19T11:30:23;9.80;;;5.03;;
23119;SDS011;11729;50.836;4.330;2022-07-19T11:32:50;6.75;;;5.40;;
23119;SDS011;11729;50.836;4.330;2022-07-19T11:35:17;11.15;;;5.32;;
23119;SDS011;11729;50.836;4.330;2022-07-19T11:37:43;10.80;;;5.30;;
23119;SDS011;11729;50.836;4.330;2022-07-19T11:40:09;5.80;;;5.20;;
23119;SDS011;11729;50.836;4.330;2022-07-19T11:42:46;7.93;;;5.15;;
23119;SDS011;11729;50.836;4.330;2022-07-19T11:45:14;6.63;;;5.22;;
23119;SDS011;11729;50.836;4.330;2022-07-19T11:47:45;10.98;;;5.80;;
23119;SDS011;11729;50.836;4.330;2022-07-19T11:50:13;10.70;;;5.30;;
23119;SDS011;11729;50.836;4.330;2022-07-19T11:52:53;8.68;;;5.30;;
23119;SDS011;11729;50.836;4.330;2022-07-19T11:55:22;11.23;;;5.40;;
23119;SDS011;11729;50.836;4.330;2022-07-19T11:58:08;8.82;;;5.40;;
23119;SDS011;11729;50.836;4.330;2022-07-19T12:00:35;7.82;;;5.13;;
23119;SDS011;11729;50.836;4.330;2022-07-19T12:03:05;9.60;;;5.28;;
23119;SDS011;11729;50.836;4.330;2022-07-19T12:05:34;10.55;;;5.35;;
23119;SDS011;11729;50.836;4.330;2022-07-19T12:08:08;9.82;;;5.18;;
23119;SDS011;11729;50.836;4.330;2022-07-19T12:13:04;9.88;;;5.50;;
23119;SDS011;11729;50.836;4.330;2022-07-19T12:15:44;11.10;;;5.18;;
23119;SDS011;11729;50.836;4.330;2022-07-19T12:18:18;7.43;;;5.72;;
23119;SDS011;11729;50.836;4.330;2022-07-19T12:24:07;11.23;;;5.50;;
23119;SDS011;11729;50.836;4.330;2022-07-19T12:26:37;6.95;;;5.57;;
23119;SDS011;11729;50.836;4.330;2022-07-19T12:29:17;8.95;;;5.25;;
23119;SDS011;11729;50.836;4.330;2022-07-19T12:31:46;11.25;;;5.55;;
23119;SDS011;11729;50.836;4.330;2022-07-19T12:34:16;11.77;;;5.53;;
23119;SDS011;11729;50.836;4.330;2022-07-19T12:36:42;9.63;;;5.40;;
23119;SDS011;11729;50.836;4.330;2022-07-19T12:39:24;8.40;;;5.40;;
23119;SDS011;11729;50.836;4.330;2022-07-19T12:41:56;9.23;;;5.43;;
23119;SDS011;11729;50.836;4.330;2022-07-19T12:44:26;8.77;;;5.32;;
23119;SDS011;11729;50.836;4.330;2022-07-19T12:46:52;7.65;;;5.35;;
23119;SDS011;11729;50.836;4.330;2022-07-19T12:49:18;8.23;;;5.57;;
23119;SDS011;11729;50.836;4.330;2022-07-19T12:51:44;9.90;;;5.60;;
23119;SDS011;11729;50.836;4.330;2022-07-19T12:54:10;10.68;;;5.57;;
23119;SDS011;11729;50.836;4.330;2022-07-19T12:56:36;12.43;;;5.72;;
23119;SDS011;11729;50.836;4.330;2022-07-19T12:59:02;11.52;;;5.38;;
23119;SDS011;11729;50.836;4.330;2022-07-19T13:01:47;8.98;;;5.68;;
23119;SDS011;11729;50.836;4.330;2022-07-19T13:04:12;9.52;;;5.88;;
23119;SDS011;11729;50.836;4.330;2022-07-19T13:06:38;8.60;;;5.17;;
23119;SDS011;11729;50.836;4.330;2022-07-19T13:09:04;12.53;;;5.73;;
23119;SDS011;11729;50.836;4.330;2022-07-19T13:11:29;12.87;;;5.70;;
23119;SDS011;11729;50.836;4.330;2022-07-19T13:13:55;10.60;;;5.67;;
23119;SDS011;11729;50.836;4.330;2022-07-19T13:16:20;12.03;;;5.73;;
23119;SDS011;11729;50.836;4.330;2022-07-19T13:21:15;9.48;;;5.53;;
23119;SDS011;11729;50.836;4.330;2022-07-19T13:23:41;7.93;;;5.82;;
23119;SDS011;11729;50.836;4.330;2022-07-19T13:26:07;16.85;;;5.93;;
23119;SDS011;11729;50.836;4.330;2022-07-19T13:28:32;9.50;;;5.80;;
23119;SDS011;11729;50.836;4.330;2022-07-19T13:30:59;7.78;;;5.57;;
23119;SDS011;11729;50.836;4.330;2022-07-19T13:33:25;9.40;;;5.75;;
23119;SDS011;11729;50.836;4.330;2022-07-19T13:35:51;10.73;;;5.50;;
23119;SDS011;11729;50.836;4.330;2022-07-19T13:38:17;10.77;;;5.67;;
23119;SDS011;11729;50.836;4.330;2022-07-19T13:40:42;12.80;;;6.07;;
23119;SDS011;11729;50.836;4.330;2022-07-19T13:43:08;8.35;;;5.45;;
23119;SDS011;11729;50.836;4.330;2022-07-19T13:45:34;8.80;;;5.40;;
23119;SDS011;11729;50.836;4.330;2022-07-19T13:47:59;11.70;;;5.03;;
23119;SDS011;11729;50.836;4.330;2022-07-19T13:50:25;8.50;;;4.73;;
23119;SDS011;11729;50.836;4.330;2022-07-19T13:52:51;14.27;;;5.25;;
23119;SDS011;11729;50.836;4.330;2022-07-19T13:55:17;12.33;;;5.10;;
23119;SDS011;11729;50.836;4.330;2022-07-19T13:57:42;7.83;;;5.13;;
23119;SDS011;11729;50.836;4.330;2022-07-19T14:00:08;7.20;;;5.00;;
23119;SDS011;11729;50.836;4.330;2022-07-19T14:02:36;12.65;;;5.07;;
23119;SDS011;11729;50.836;4.330;2022-07-19T14:05:03;12.35;;;5.15;;
23119;SDS011;11729;50.836;4.330;2022-07-19T14:07:30;12.77;;;5.22;;
23119;SDS011;11729;50.836;4.330;2022-07-19T14:09:56;9.70;;;5.20;;
23119;SDS011;11729;50.836;4.330;2022-07-19T14:12:21;11.40;;;5.13;;
23119;SDS011;11729;50.836;4.330;2022-07-19T14:14:47;10.43;;;5.33;;
23119;SDS011;11729;50.836;4.330;2022-07-19T14:17:13;5.17;;;4.67;;
23119;SDS011;11729;50.836;4.330;2022-07-19T14:19:42;6.22;;;4.72;;
23119;SDS011;11729;50.836;4.330;2022-07-19T14:22:08;6.85;;;5.15;;
23119;SDS011;11729;50.836;4.330;2022-07-19T14:24:34;7.35;;;5.38;;
23119;SDS011;11729;50.836;4.330;2022-07-19T14:27:00;13.37;;;5.20;;
23119;SDS011;11729;50.836;4.330;2022-07-19T14:29:26;12.73;;;5.23;;
23119;SDS011;11729;50.836;4.330;2022-07-19T14:31:52;6.90;;;4.85;;
23119;SDS011;11729;50.836;4.330;2022-07-19T14:34:17;8.13;;;4.78;;
23119;SDS011;11729;50.836;4.330;2022-07-19T14:36:43;6.03;;;4.90;;
23119;SDS011;11729;50.836;4.330;2022-07-19T14:39:09;6.43;;;4.70;;
23119;SDS011;11729;50.836;4.330;2022-07-19T14:41:36;11.13;;;5.00;;
23119;SDS011;11729;50.836;4.330;2022-07-19T14:44:02;7.10;;;4.70;;
23119;SDS011;11729;50.836;4.330;2022-07-19T14:46:27;5.70;;;4.88;;
23119;SDS011;11729;50.836;4.330;2022-07-19T14:48:53;5.78;;;5.00;;
23119;SDS011;11729;50.836;4.330;2022-07-19T14:51:19;7.10;;;4.50;;
23119;SDS011;11729;50.836;4.330;2022-07-19T14:53:44;7.55;;;4.72;;
23119;SDS011;11729;50.836;4.330;2022-07-19T14:56:11;6.38;;;4.65;;
23119;SDS011;11729;50.836;4.330;2022-07-19T15:01:03;6.63;;;4.63;;
23119;SDS011;11729;50.836;4.330;2022-07-19T15:03:28;8.18;;;4.40;;
23119;SDS011;11729;50.836;4.330;2022-07-19T15:05:54;5.30;;;4.38;;
23119;SDS011;11729;50.836;4.330;2022-07-19T15:08:20;4.95;;;4.45;;
23119;SDS011;11729;50.836;4.330;2022-07-19T15:10:45;8.65;;;4.85;;
23119;SDS011;11729;50.836;4.330;2022-07-19T15:13:11;15.68;;;10.27;;
23119;SDS011;11729;50.836;4.330;2022-07-19T15:15:37;12.57;;;11.38;;
23119;SDS011;11729;50.836;4.330;2022-07-19T15:18:03;16.13;;;9.70;;
23119;SDS011;11729;50.836;4.330;2022-07-19T15:20:30;14.55;;;7.50;;
23119;SDS011;11729;50.836;4.330;2022-07-19T15:22:56;14.95;;;5.00;;
23119;SDS011;11729;50.836;4.330;2022-07-19T15:25:22;5.78;;;4.97;;
23119;SDS011;11729;50.836;4.330;2022-07-19T15:27:48;5.65;;;4.15;;
23119;SDS011;11729;50.836;4.330;2022-07-19T15:30:17;8.60;;;4.18;;
23119;SDS011;11729;50.836;4.330;2022-07-19T15:32:43;4.97;;;4.53;;
23119;SDS011;11729;50.836;4.330;2022-07-19T15:35:10;5.72;;;4.72;;
23119;SDS011;11729;50.836;4.330;2022-07-19T15:37:36;8.20;;;4.78;;
23119;SDS011;11729;50.836;4.330;2022-07-19T15:40:02;7.35;;;4.65;;